sensor_id;sensor_type;location;lat;lon;timestamp;P1;durP1;ratioP1;P2;durP2;ratioP2
11651;SDS011;5882;48.818;9.114;2022-09-06T00:00:09;2.70;;;2.50;;
11651;SDS011;5882;48.818;9.114;2022-09-06T00:02:36;2.50;;;2.30;;
11651;SDS011;5882;48.818;9.114;2022-09-06T00:05:03;2.75;;;2.55;;
11651;SDS011;5882;48.818;9.114;2022-09-06T00:07:29;2.60;;;2.40;;
11651;SDS011;5882;48.818;9.114;2022-09-06T00:09:56;2.33;;;2.13;;
11651;SDS011;5882;48.818;9.114;2022-09-06T00:12:22;2.70;;;2.50;;
11651;SDS011;5882;48.818;9.114;2022-09-06T00:14:50;2.60;;;2.40;;
11651;SDS011;5882;48.818;9.114;2022-09-06T00:17:16;2.38;;;2.17;;
11651;SDS011;5882;48.818;9.114;2022-09-06T00:19:43;2.45;;;2.25;;
11651;SDS011;5882;48.818;9.114;2022-09-06T00:22:10;2.47;;;2.28;;
11651;SDS011;5882;48.818;9.114;2022-09-06T00:24:36;2.88;;;2.67;;
11651;SDS011;5882;48.818;9.114;2022-09-06T00:27:03;2.30;;;2.10;;
11651;SDS011;5882;48.818;9.114;2022-09-06T00:29:29;2.35;;;2.15;;
11651;SDS011;5882;48.818;9.114;2022-09-06T00:31:57;2.40;;;2.20;;
11651;SDS011;5882;48.818;9.114;2022-09-06T00:34:24;2.25;;;2.10;;
11651;SDS011;5882;48.818;9.114;2022-09-06T00:36:50;2.35;;;2.15;;
11651;SDS011;5882;48.818;9.114;2022-09-06T00:39:17;2.42;;;2.22;;
11651;SDS011;5882;48.818;9.114;2022-09-06T00:41:43;2.47;;;2.15;;
11651;SDS011;5882;48.818;9.114;2022-09-06T00:44:10;2.15;;;2.05;;
11651;SDS011;5882;48.818;9.114;2022-09-06T00:46:37;2.55;;;2.35;;
11651;SDS011;5882;48.818;9.114;2022-09-06T00:49:07;2.53;;;2.33;;
11651;SDS011;5882;48.818;9.114;2022-09-06T00:51:35;2.33;;;2.22;;
11651;SDS011;5882;48.818;9.114;2022-09-06T00:54:01;3.25;;;2.70;;
11651;SDS011;5882;48.818;9.114;2022-09-06T00:56:28;2.55;;;2.35;;
11651;SDS011;5882;48.818;9.114;2022-09-06T00:58:55;2.60;;;2.40;;
11651;SDS011;5882;48.818;9.114;2022-09-06T01:01:22;2.78;;;2.47;;
11651;SDS011;5882;48.818;9.114;2022-09-06T01:03:48;2.00;;;1.90;;
11651;SDS011;5882;48.818;9.114;2022-09-06T01:06:20;2.67;;;2.20;;
11651;SDS011;5882;48.818;9.114;2022-09-06T01:08:52;2.47;;;2.28;;
11651;SDS011;5882;48.818;9.114;2022-09-06T01:11:29;2.72;;;2.50;;
11651;SDS011;5882;48.818;9.114;2022-09-06T01:14:04;2.20;;;2.10;;
11651;SDS011;5882;48.818;9.114;2022-09-06T01:16:33;7.13;;;2.47;;
11651;SDS011;5882;48.818;9.114;2022-09-06T01:19:12;2.65;;;2.45;;
11651;SDS011;5882;48.818;9.114;2022-09-06T01:21:44;2.47;;;2.28;;
11651;SDS011;5882;48.818;9.114;2022-09-06T01:24:27;2.45;;;2.25;;
11651;SDS011;5882;48.818;9.114;2022-09-06T01:29:45;2.70;;;2.50;;
11651;SDS011;5882;48.818;9.114;2022-09-06T01:32:14;2.60;;;2.40;;
11651;SDS011;5882;48.818;9.114;2022-09-06T01:34:43;2.90;;;2.70;;
11651;SDS011;5882;48.818;9.114;2022-09-06T01:37:10;2.20;;;2.10;;
11651;SDS011;5882;48.818;9.114;2022-09-06T01:39:38;3.05;;;2.33;;
11651;SDS011;5882;48.818;9.114;2022-09-06T01:42:06;2.50;;;2.30;;
11651;SDS011;5882;48.818;9.114;2022-09-06T01:44:34;3.03;;;2.40;;
11651;SDS011;5882;48.818;9.114;2022-09-06T01:47:04;2.72;;;2.20;;
11651;SDS011;5882;48.818;9.114;2022-09-06T01:49:38;2.60;;;2.40;;
11651;SDS011;5882;48.818;9.114;2022-09-06T01:52:10;2.63;;;2.40;;
11651;SDS011;5882;48.818;9.114;2022-09-06T01:54:43;3.00;;;2.55;;
11651;SDS011;5882;48.818;9.114;2022-09-06T01:57:13;2.38;;;2.17;;
11651;SDS011;5882;48.818;9.114;2022-09-06T01:59:49;4.32;;;2.70;;
11651;SDS011;5882;48.818;9.114;2022-09-06T02:02:18;2.38;;;2.17;;
11651;SDS011;5882;48.818;9.114;2022-09-06T02:04:50;2.85;;;2.40;;
11651;SDS011;5882;48.818;9.114;2022-09-06T02:07:19;2.58;;;2.38;;
11651;SDS011;5882;48.818;9.114;2022-09-06T02:09:47;2.30;;;2.20;;
11651;SDS011;5882;48.818;9.114;2022-09-06T02:12:15;2.42;;;2.22;;
11651;SDS011;5882;48.818;9.114;2022-09-06T02:14:42;2.65;;;2.45;;
11651;SDS011;5882;48.818;9.114;2022-09-06T02:17:11;2.90;;;2.70;;
11651;SDS011;5882;48.818;9.114;2022-09-06T02:19:43;3.25;;;2.95;;
11651;SDS011;5882;48.818;9.114;2022-09-06T02:22:11;2.97;;;2.67;;
11651;SDS011;5882;48.818;9.114;2022-09-06T02:24:40;3.08;;;2.70;;
11651;SDS011;5882;48.818;9.114;2022-09-06T02:27:07;2.97;;;2.75;;
11651;SDS011;5882;48.818;9.114;2022-09-06T02:29:33;3.55;;;3.13;;
11651;SDS011;5882;48.818;9.114;2022-09-06T02:32:01;2.83;;;2.63;;
11651;SDS011;5882;48.818;9.114;2022-09-06T02:34:29;2.75;;;2.55;;
11651;SDS011;5882;48.818;9.114;2022-09-06T02:36:57;4.30;;;2.67;;
11651;SDS011;5882;48.818;9.114;2022-09-06T02:39:23;4.18;;;2.50;;
11651;SDS011;5882;48.818;9.114;2022-09-06T02:41:50;2.75;;;2.38;;
11651;SDS011;5882;48.818;9.114;2022-09-06T02:44:16;2.80;;;2.60;;
11651;SDS011;5882;48.818;9.114;2022-09-06T02:46:43;2.85;;;2.20;;
11651;SDS011;5882;48.818;9.114;2022-09-06T02:49:09;2.50;;;2.30;;
11651;SDS011;5882;48.818;9.114;2022-09-06T02:51:36;3.20;;;2.60;;
11651;SDS011;5882;48.818;9.114;2022-09-06T02:54:04;3.95;;;2.75;;
11651;SDS011;5882;48.818;9.114;2022-09-06T02:56:31;2.95;;;2.75;;
11651;SDS011;5882;48.818;9.114;2022-09-06T02:59:00;2.88;;;2.67;;
11651;SDS011;5882;48.818;9.114;2022-09-06T03:01:27;3.38;;;3.08;;
11651;SDS011;5882;48.818;9.114;2022-09-06T03:03:53;3.35;;;3.05;;
11651;SDS011;5882;48.818;9.114;2022-09-06T03:06:20;3.47;;;3.17;;
11651;SDS011;5882;48.818;9.114;2022-09-06T03:08:46;3.42;;;3.13;;
11651;SDS011;5882;48.818;9.114;2022-09-06T03:11:14;3.47;;;3.17;;
11651;SDS011;5882;48.818;9.114;2022-09-06T03:13:40;3.17;;;2.85;;
11651;SDS011;5882;48.818;9.114;2022-09-06T03:16:07;3.40;;;3.10;;
11651;SDS011;5882;48.818;9.114;2022-09-06T03:18:34;3.15;;;2.83;;
11651;SDS011;5882;48.818;9.114;2022-09-06T03:21:00;3.42;;;3.13;;
11651;SDS011;5882;48.818;9.114;2022-09-06T03:23:27;2.95;;;2.75;;
11651;SDS011;5882;48.818;9.114;2022-09-06T03:25:54;3.25;;;2.95;;
11651;SDS011;5882;48.818;9.114;2022-09-06T03:28:22;3.20;;;3.00;;
11651;SDS011;5882;48.818;9.114;2022-09-06T03:30:49;3.20;;;2.95;;
11651;SDS011;5882;48.818;9.114;2022-09-06T03:33:16;3.15;;;2.95;;
11651;SDS011;5882;48.818;9.114;2022-09-06T03:35:46;3.55;;;3.17;;
11651;SDS011;5882;48.818;9.114;2022-09-06T03:38:12;3.60;;;3.25;;
11651;SDS011;5882;48.818;9.114;2022-09-06T03:40:39;3.38;;;3.08;;
11651;SDS011;5882;48.818;9.114;2022-09-06T03:43:05;3.70;;;3.40;;
11651;SDS011;5882;48.818;9.114;2022-09-06T03:45:33;3.63;;;3.20;;
11651;SDS011;5882;48.818;9.114;2022-09-06T03:48:00;3.10;;;2.90;;
11651;SDS011;5882;48.818;9.114;2022-09-06T03:50:26;3.47;;;3.17;;
11651;SDS011;5882;48.818;9.114;2022-09-06T03:52:52;3.30;;;3.00;;
11651;SDS011;5882;48.818;9.114;2022-09-06T03:55:19;3.38;;;3.08;;
11651;SDS011;5882;48.818;9.114;2022-09-06T03:57:45;3.50;;;3.03;;
11651;SDS011;5882;48.818;9.114;2022-09-06T04:00:12;2.95;;;2.72;;
11651;SDS011;5882;48.818;9.114;2022-09-06T04:02:40;3.53;;;3.05;;
11651;SDS011;5882;48.818;9.114;2022-09-06T04:05:07;2.97;;;2.75;;
11651;SDS011;5882;48.818;9.114;2022-09-06T04:07:34;4.90;;;3.60;;
11651;SDS011;5882;48.818;9.114;2022-09-06T04:10:02;3.40;;;3.10;;
11651;SDS011;5882;48.818;9.114;2022-09-06T04:12:29;3.25;;;2.92;;
11651;SDS011;5882;48.818;9.114;2022-09-06T04:14:55;3.63;;;3.28;;
11651;SDS011;5882;48.818;9.114;2022-09-06T04:17:24;3.10;;;2.88;;
11651;SDS011;5882;48.818;9.114;2022-09-06T04:19:52;3.65;;;2.78;;
11651;SDS011;5882;48.818;9.114;2022-09-06T04:22:18;3.80;;;3.50;;
11651;SDS011;5882;48.818;9.114;2022-09-06T04:24:45;3.22;;;2.95;;
11651;SDS011;5882;48.818;9.114;2022-09-06T04:27:11;3.17;;;2.97;;
11651;SDS011;5882;48.818;9.114;2022-09-06T04:29:38;6.97;;;3.17;;
11651;SDS011;5882;48.818;9.114;2022-09-06T04:32:04;3.47;;;2.90;;
11651;SDS011;5882;48.818;9.114;2022-09-06T04:34:31;3.80;;;3.40;;
11651;SDS011;5882;48.818;9.114;2022-09-06T04:36:59;3.10;;;2.90;;
11651;SDS011;5882;48.818;9.114;2022-09-06T04:39:26;3.60;;;3.25;;
11651;SDS011;5882;48.818;9.114;2022-09-06T04:41:52;2.90;;;2.70;;
11651;SDS011;5882;48.818;9.114;2022-09-06T04:44:18;3.15;;;2.95;;
11651;SDS011;5882;48.818;9.114;2022-09-06T04:46:45;3.28;;;3.00;;
11651;SDS011;5882;48.818;9.114;2022-09-06T04:49:12;4.15;;;3.17;;
11651;SDS011;5882;48.818;9.114;2022-09-06T04:51:39;3.42;;;3.13;;
11651;SDS011;5882;48.818;9.114;2022-09-06T04:54:07;4.05;;;3.25;;
11651;SDS011;5882;48.818;9.114;2022-09-06T04:56:33;3.50;;;3.20;;
11651;SDS011;5882;48.818;9.114;2022-09-06T04:58:59;3.55;;;3.25;;
11651;SDS011;5882;48.818;9.114;2022-09-06T05:01:27;3.88;;;3.58;;
11651;SDS011;5882;48.818;9.114;2022-09-06T05:03:53;3.28;;;2.95;;
11651;SDS011;5882;48.818;9.114;2022-09-06T05:06:20;3.40;;;3.10;;
11651;SDS011;5882;48.818;9.114;2022-09-06T05:08:47;3.70;;;3.40;;
11651;SDS011;5882;48.818;9.114;2022-09-06T05:11:15;3.22;;;2.97;;
11651;SDS011;5882;48.818;9.114;2022-09-06T05:13:42;3.00;;;2.80;;
11651;SDS011;5882;48.818;9.114;2022-09-06T05:16:08;3.50;;;3.20;;
11651;SDS011;5882;48.818;9.114;2022-09-06T05:18:36;3.58;;;3.13;;
11651;SDS011;5882;48.818;9.114;2022-09-06T05:21:02;3.60;;;3.30;;
11651;SDS011;5882;48.818;9.114;2022-09-06T05:23:29;3.60;;;3.30;;
11651;SDS011;5882;48.818;9.114;2022-09-06T05:25:55;3.17;;;2.90;;
11651;SDS011;5882;48.818;9.114;2022-09-06T05:28:23;3.28;;;3.08;;
11651;SDS011;5882;48.818;9.114;2022-09-06T05:30:49;3.60;;;3.30;;
11651;SDS011;5882;48.818;9.114;2022-09-06T05:33:18;4.50;;;4.05;;
11651;SDS011;5882;48.818;9.114;2022-09-06T05:35:45;3.58;;;3.28;;
11651;SDS011;5882;48.818;9.114;2022-09-06T05:38:11;3.60;;;3.30;;
11651;SDS011;5882;48.818;9.114;2022-09-06T05:40:37;3.50;;;3.20;;
11651;SDS011;5882;48.818;9.114;2022-09-06T05:43:04;3.40;;;3.10;;
11651;SDS011;5882;48.818;9.114;2022-09-06T05:45:32;3.63;;;3.33;;
11651;SDS011;5882;48.818;9.114;2022-09-06T05:47:58;6.63;;;3.90;;
11651;SDS011;5882;48.818;9.114;2022-09-06T05:50:24;3.40;;;3.10;;
11651;SDS011;5882;48.818;9.114;2022-09-06T05:52:52;3.80;;;3.35;;
11651;SDS011;5882;48.818;9.114;2022-09-06T05:55:18;3.38;;;3.10;;
11651;SDS011;5882;48.818;9.114;2022-09-06T05:57:45;3.80;;;3.50;;
11651;SDS011;5882;48.818;9.114;2022-09-06T06:00:20;4.65;;;4.00;;
11651;SDS011;5882;48.818;9.114;2022-09-06T06:02:50;4.35;;;3.80;;
11651;SDS011;5882;48.818;9.114;2022-09-06T06:05:17;3.45;;;3.15;;
11651;SDS011;5882;48.818;9.114;2022-09-06T06:07:44;3.72;;;3.42;;
11651;SDS011;5882;48.818;9.114;2022-09-06T06:10:10;4.93;;;3.55;;
11651;SDS011;5882;48.818;9.114;2022-09-06T06:12:37;4.50;;;3.38;;
11651;SDS011;5882;48.818;9.114;2022-09-06T06:15:03;3.85;;;3.45;;
11651;SDS011;5882;48.818;9.114;2022-09-06T06:17:30;3.45;;;3.15;;
11651;SDS011;5882;48.818;9.114;2022-09-06T06:19:58;3.15;;;2.85;;
11651;SDS011;5882;48.818;9.114;2022-09-06T06:22:24;3.45;;;3.15;;
11651;SDS011;5882;48.818;9.114;2022-09-06T06:24:51;3.40;;;3.10;;
11651;SDS011;5882;48.818;9.114;2022-09-06T06:27:17;6.25;;;3.20;;
11651;SDS011;5882;48.818;9.114;2022-09-06T06:29:44;3.15;;;2.85;;
11651;SDS011;5882;48.818;9.114;2022-09-06T06:32:10;3.60;;;2.90;;
11651;SDS011;5882;48.818;9.114;2022-09-06T06:34:37;3.70;;;2.85;;
11651;SDS011;5882;48.818;9.114;2022-09-06T06:37:05;3.30;;;3.00;;
11651;SDS011;5882;48.818;9.114;2022-09-06T06:39:31;3.60;;;3.30;;
11651;SDS011;5882;48.818;9.114;2022-09-06T06:41:58;3.70;;;3.40;;
11651;SDS011;5882;48.818;9.114;2022-09-06T06:44:24;9.07;;;7.65;;
11651;SDS011;5882;48.818;9.114;2022-09-06T06:46:52;4.35;;;3.92;;
11651;SDS011;5882;48.818;9.114;2022-09-06T06:49:18;3.25;;;2.92;;
11651;SDS011;5882;48.818;9.114;2022-09-06T06:51:45;3.22;;;2.97;;
11651;SDS011;5882;48.818;9.114;2022-09-06T06:54:13;3.33;;;3.00;;
11651;SDS011;5882;48.818;9.114;2022-09-06T06:56:39;3.53;;;3.22;;
11651;SDS011;5882;48.818;9.114;2022-09-06T06:59:06;2.80;;;2.60;;
11651;SDS011;5882;48.818;9.114;2022-09-06T07:01:33;4.30;;;3.90;;
11651;SDS011;5882;48.818;9.114;2022-09-06T07:03:59;2.75;;;2.55;;
11651;SDS011;5882;48.818;9.114;2022-09-06T07:06:26;3.28;;;2.95;;
11651;SDS011;5882;48.818;9.114;2022-09-06T07:08:54;4.10;;;3.63;;
11651;SDS011;5882;48.818;9.114;2022-09-06T07:11:22;4.00;;;2.90;;
11651;SDS011;5882;48.818;9.114;2022-09-06T07:13:49;2.70;;;2.50;;
11651;SDS011;5882;48.818;9.114;2022-09-06T07:16:16;3.03;;;2.70;;
11651;SDS011;5882;48.818;9.114;2022-09-06T07:18:43;2.80;;;2.60;;
11651;SDS011;5882;48.818;9.114;2022-09-06T07:21:10;3.42;;;3.13;;
11651;SDS011;5882;48.818;9.114;2022-09-06T07:23:37;2.72;;;2.53;;
11651;SDS011;5882;48.818;9.114;2022-09-06T07:26:04;2.47;;;2.38;;
11651;SDS011;5882;48.818;9.114;2022-09-06T07:28:32;3.25;;;2.83;;
11651;SDS011;5882;48.818;9.114;2022-09-06T07:30:58;3.92;;;3.10;;
11651;SDS011;5882;48.818;9.114;2022-09-06T07:33:25;2.92;;;2.72;;
11651;SDS011;5882;48.818;9.114;2022-09-06T07:35:53;2.78;;;2.50;;
11651;SDS011;5882;48.818;9.114;2022-09-06T07:38:20;3.45;;;3.15;;
11651;SDS011;5882;48.818;9.114;2022-09-06T07:40:51;2.88;;;2.67;;
11651;SDS011;5882;48.818;9.114;2022-09-06T07:43:17;2.60;;;2.40;;
11651;SDS011;5882;48.818;9.114;2022-09-06T07:45:45;2.85;;;2.65;;
11651;SDS011;5882;48.818;9.114;2022-09-06T07:48:12;2.40;;;2.20;;
11651;SDS011;5882;48.818;9.114;2022-09-06T07:50:38;2.78;;;2.58;;
11651;SDS011;5882;48.818;9.114;2022-09-06T07:53:05;2.60;;;2.40;;
11651;SDS011;5882;48.818;9.114;2022-09-06T07:55:31;2.78;;;2.58;;
11651;SDS011;5882;48.818;9.114;2022-09-06T07:57:58;2.42;;;2.22;;
11651;SDS011;5882;48.818;9.114;2022-09-06T08:00:24;2.53;;;2.33;;
11651;SDS011;5882;48.818;9.114;2022-09-06T08:02:52;2.60;;;2.40;;
11651;SDS011;5882;48.818;9.114;2022-09-06T08:05:19;2.85;;;2.65;;
11651;SDS011;5882;48.818;9.114;2022-09-06T08:07:45;2.30;;;2.20;;
11651;SDS011;5882;48.818;9.114;2022-09-06T08:10:12;2.80;;;2.60;;
11651;SDS011;5882;48.818;9.114;2022-09-06T08:12:38;2.97;;;2.50;;
11651;SDS011;5882;48.818;9.114;2022-09-06T08:15:05;2.63;;;2.42;;
11651;SDS011;5882;48.818;9.114;2022-09-06T08:17:32;3.50;;;2.80;;
11651;SDS011;5882;48.818;9.114;2022-09-06T08:20:01;2.63;;;2.42;;
11651;SDS011;5882;48.818;9.114;2022-09-06T08:22:30;2.42;;;2.22;;
11651;SDS011;5882;48.818;9.114;2022-09-06T08:24:57;3.22;;;2.92;;
11651;SDS011;5882;48.818;9.114;2022-09-06T08:27:23;3.05;;;2.28;;
11651;SDS011;5882;48.818;9.114;2022-09-06T08:29:50;2.50;;;2.30;;
11651;SDS011;5882;48.818;9.114;2022-09-06T08:32:17;2.67;;;2.47;;
11651;SDS011;5882;48.818;9.114;2022-09-06T08:34:43;3.20;;;2.65;;
11651;SDS011;5882;48.818;9.114;2022-09-06T08:37:11;2.50;;;2.30;;
11651;SDS011;5882;48.818;9.114;2022-09-06T08:39:37;2.55;;;2.38;;
11651;SDS011;5882;48.818;9.114;2022-09-06T08:42:04;2.38;;;2.28;;
11651;SDS011;5882;48.818;9.114;2022-09-06T08:44:31;2.53;;;2.33;;
11651;SDS011;5882;48.818;9.114;2022-09-06T08:46:59;3.08;;;2.47;;
11651;SDS011;5882;48.818;9.114;2022-09-06T08:49:28;2.65;;;2.45;;
11651;SDS011;5882;48.818;9.114;2022-09-06T08:51:59;2.50;;;2.30;;
11651;SDS011;5882;48.818;9.114;2022-09-06T08:54:31;2.50;;;2.30;;
11651;SDS011;5882;48.818;9.114;2022-09-06T08:57:04;2.50;;;2.30;;
11651;SDS011;5882;48.818;9.114;2022-09-06T08:59:34;2.58;;;2.20;;
11651;SDS011;5882;48.818;9.114;2022-09-06T09:02:04;2.45;;;2.25;;
11651;SDS011;5882;48.818;9.114;2022-09-06T09:04:34;2.63;;;2.42;;
11651;SDS011;5882;48.818;9.114;2022-09-06T09:07:05;2.53;;;2.33;;
11651;SDS011;5882;48.818;9.114;2022-09-06T09:09:38;3.15;;;2.60;;
11651;SDS011;5882;48.818;9.114;2022-09-06T09:12:06;2.28;;;2.13;;
11651;SDS011;5882;48.818;9.114;2022-09-06T09:14:34;2.63;;;2.42;;
11651;SDS011;5882;48.818;9.114;2022-09-06T09:17:03;2.65;;;2.40;;
11651;SDS011;5882;48.818;9.114;2022-09-06T09:19:30;2.45;;;2.10;;
11651;SDS011;5882;48.818;9.114;2022-09-06T09:22:00;3.33;;;2.05;;
11651;SDS011;5882;48.818;9.114;2022-09-06T09:24:27;2.40;;;2.20;;
11651;SDS011;5882;48.818;9.114;2022-09-06T09:26:58;2.22;;;2.13;;
11651;SDS011;5882;48.818;9.114;2022-09-06T09:29:27;3.05;;;2.78;;
11651;SDS011;5882;48.818;9.114;2022-09-06T09:31:54;2.35;;;2.15;;
11651;SDS011;5882;48.818;9.114;2022-09-06T09:34:28;2.58;;;1.90;;
11651;SDS011;5882;48.818;9.114;2022-09-06T09:37:09;2.33;;;2.10;;
11651;SDS011;5882;48.818;9.114;2022-09-06T09:39:36;3.60;;;2.00;;
11651;SDS011;5882;48.818;9.114;2022-09-06T09:42:05;3.17;;;2.40;;
11651;SDS011;5882;48.818;9.114;2022-09-06T09:44:32;2.30;;;2.10;;
11651;SDS011;5882;48.818;9.114;2022-09-06T09:46:59;2.05;;;1.88;;
11651;SDS011;5882;48.818;9.114;2022-09-06T09:49:28;2.67;;;2.33;;
11651;SDS011;5882;48.818;9.114;2022-09-06T09:52:03;2.22;;;2.03;;
11651;SDS011;5882;48.818;9.114;2022-09-06T09:54:31;2.40;;;2.00;;
11651;SDS011;5882;48.818;9.114;2022-09-06T09:56:57;2.75;;;1.83;;
11651;SDS011;5882;48.818;9.114;2022-09-06T09:59:25;1.98;;;1.85;;
11651;SDS011;5882;48.818;9.114;2022-09-06T10:01:53;2.25;;;2.10;;
11651;SDS011;5882;48.818;9.114;2022-09-06T10:04:23;4.65;;;2.08;;
11651;SDS011;5882;48.818;9.114;2022-09-06T10:06:52;2.13;;;2.00;;
11651;SDS011;5882;48.818;9.114;2022-09-06T10:09:32;2.38;;;2.22;;
11651;SDS011;5882;48.818;9.114;2022-09-06T10:11:59;3.30;;;2.10;;
11651;SDS011;5882;48.818;9.114;2022-09-06T10:14:29;2.15;;;2.05;;
11651;SDS011;5882;48.818;9.114;2022-09-06T10:16:56;2.60;;;2.40;;
11651;SDS011;5882;48.818;9.114;2022-09-06T10:19:29;4.00;;;2.00;;
11651;SDS011;5882;48.818;9.114;2022-09-06T10:22:02;2.30;;;2.08;;
11651;SDS011;5882;48.818;9.114;2022-09-06T10:24:33;1.90;;;1.80;;
11651;SDS011;5882;48.818;9.114;2022-09-06T10:27:01;2.75;;;2.50;;
11651;SDS011;5882;48.818;9.114;2022-09-06T10:29:31;2.58;;;2.28;;
11651;SDS011;5882;48.818;9.114;2022-09-06T10:32:03;2.13;;;2.00;;
11651;SDS011;5882;48.818;9.114;2022-09-06T10:34:44;2.50;;;2.17;;
11651;SDS011;5882;48.818;9.114;2022-09-06T10:37:15;3.42;;;2.35;;
11651;SDS011;5882;48.818;9.114;2022-09-06T10:39:47;2.40;;;2.20;;
11651;SDS011;5882;48.818;9.114;2022-09-06T10:42:16;3.10;;;2.40;;
11651;SDS011;5882;48.818;9.114;2022-09-06T10:44:52;2.10;;;1.90;;
11651;SDS011;5882;48.818;9.114;2022-09-06T10:47:19;2.40;;;2.20;;
11651;SDS011;5882;48.818;9.114;2022-09-06T10:49:49;2.22;;;2.08;;
11651;SDS011;5882;48.818;9.114;2022-09-06T10:52:17;2.80;;;2.50;;
11651;SDS011;5882;48.818;9.114;2022-09-06T10:54:45;2.60;;;2.15;;
11651;SDS011;5882;48.818;9.114;2022-09-06T10:57:14;2.03;;;1.90;;
11651;SDS011;5882;48.818;9.114;2022-09-06T10:59:44;4.43;;;2.30;;
11651;SDS011;5882;48.818;9.114;2022-09-06T11:02:17;2.50;;;2.30;;
11651;SDS011;5882;48.818;9.114;2022-09-06T11:04:47;2.17;;;2.08;;
11651;SDS011;5882;48.818;9.114;2022-09-06T11:07:15;2.33;;;2.13;;
11651;SDS011;5882;48.818;9.114;2022-09-06T11:09:44;2.35;;;2.15;;
11651;SDS011;5882;48.818;9.114;2022-09-06T11:12:13;2.70;;;2.30;;
11651;SDS011;5882;48.818;9.114;2022-09-06T11:14:40;3.55;;;2.15;;
11651;SDS011;5882;48.818;9.114;2022-09-06T11:17:08;2.53;;;2.30;;
11651;SDS011;5882;48.818;9.114;2022-09-06T11:19:38;2.78;;;2.55;;
11651;SDS011;5882;48.818;9.114;2022-09-06T11:22:20;3.10;;;2.20;;
11651;SDS011;5882;48.818;9.114;2022-09-06T11:24:55;2.50;;;2.30;;
11651;SDS011;5882;48.818;9.114;2022-09-06T11:27:25;2.72;;;2.50;;
11651;SDS011;5882;48.818;9.114;2022-09-06T11:29:53;2.78;;;2.58;;
11651;SDS011;5882;48.818;9.114;2022-09-06T11:32:26;1.98;;;1.88;;
11651;SDS011;5882;48.818;9.114;2022-09-06T11:34:55;2.35;;;2.15;;
11651;SDS011;5882;48.818;9.114;2022-09-06T11:37:23;2.70;;;2.50;;
11651;SDS011;5882;48.818;9.114;2022-09-06T11:40:00;2.75;;;2.55;;
11651;SDS011;5882;48.818;9.114;2022-09-06T11:42:38;2.72;;;2.50;;
11651;SDS011;5882;48.818;9.114;2022-09-06T11:45:12;2.95;;;2.75;;
11651;SDS011;5882;48.818;9.114;2022-09-06T11:47:42;2.95;;;2.40;;
11651;SDS011;5882;48.818;9.114;2022-09-06T11:53:12;2.67;;;2.42;;
11651;SDS011;5882;48.818;9.114;2022-09-06T11:55:39;2.50;;;2.30;;
11651;SDS011;5882;48.818;9.114;2022-09-06T11:58:09;4.75;;;2.50;;
11651;SDS011;5882;48.818;9.114;2022-09-06T12:00:36;2.72;;;2.53;;
11651;SDS011;5882;48.818;9.114;2022-09-06T12:03:03;2.60;;;2.40;;
11651;SDS011;5882;48.818;9.114;2022-09-06T12:05:32;4.22;;;2.50;;
11651;SDS011;5882;48.818;9.114;2022-09-06T12:11:00;2.60;;;2.40;;
11651;SDS011;5882;48.818;9.114;2022-09-06T12:16:15;2.72;;;2.10;;
11651;SDS011;5882;48.818;9.114;2022-09-06T12:18:53;3.03;;;2.35;;
11651;SDS011;5882;48.818;9.114;2022-09-06T12:27:12;4.68;;;2.30;;
11651;SDS011;5882;48.818;9.114;2022-09-06T12:29:40;2.50;;;2.30;;
11651;SDS011;5882;48.818;9.114;2022-09-06T12:32:15;3.00;;;2.00;;
11651;SDS011;5882;48.818;9.114;2022-09-06T12:34:43;2.70;;;2.50;;
11651;SDS011;5882;48.818;9.114;2022-09-06T12:37:10;2.63;;;2.42;;
11651;SDS011;5882;48.818;9.114;2022-09-06T12:39:36;2.95;;;2.63;;
11651;SDS011;5882;48.818;9.114;2022-09-06T12:42:04;2.85;;;2.35;;
11651;SDS011;5882;48.818;9.114;2022-09-06T12:44:32;3.42;;;2.67;;
11651;SDS011;5882;48.818;9.114;2022-09-06T12:47:02;2.50;;;2.30;;
11651;SDS011;5882;48.818;9.114;2022-09-06T12:49:29;2.70;;;2.50;;
11651;SDS011;5882;48.818;9.114;2022-09-06T12:52:04;2.90;;;2.70;;
11651;SDS011;5882;48.818;9.114;2022-09-06T12:54:31;3.88;;;2.72;;
11651;SDS011;5882;48.818;9.114;2022-09-06T12:57:10;3.35;;;3.05;;
11651;SDS011;5882;48.818;9.114;2022-09-06T12:59:45;3.70;;;2.88;;
11651;SDS011;5882;48.818;9.114;2022-09-06T13:02:12;3.13;;;2.83;;
11651;SDS011;5882;48.818;9.114;2022-09-06T13:04:41;5.03;;;3.17;;
11651;SDS011;5882;48.818;9.114;2022-09-06T13:07:10;3.17;;;2.88;;
11651;SDS011;5882;48.818;9.114;2022-09-06T13:09:38;3.60;;;2.70;;
11651;SDS011;5882;48.818;9.114;2022-09-06T13:12:08;4.95;;;2.88;;
11651;SDS011;5882;48.818;9.114;2022-09-06T13:14:40;3.47;;;2.85;;
11651;SDS011;5882;48.818;9.114;2022-09-06T13:17:06;2.92;;;2.72;;
11651;SDS011;5882;48.818;9.114;2022-09-06T13:19:34;3.70;;;3.28;;
11651;SDS011;5882;48.818;9.114;2022-09-06T13:22:01;4.18;;;3.22;;
11651;SDS011;5882;48.818;9.114;2022-09-06T13:24:38;3.42;;;3.22;;
11651;SDS011;5882;48.818;9.114;2022-09-06T13:27:22;3.33;;;3.03;;
11651;SDS011;5882;48.818;9.114;2022-09-06T13:29:54;2.85;;;2.65;;
11651;SDS011;5882;48.818;9.114;2022-09-06T13:32:21;3.55;;;2.92;;
11651;SDS011;5882;48.818;9.114;2022-09-06T13:34:48;3.15;;;2.85;;
11651;SDS011;5882;48.818;9.114;2022-09-06T13:37:17;3.08;;;2.63;;
11651;SDS011;5882;48.818;9.114;2022-09-06T13:39:43;2.83;;;2.63;;
11651;SDS011;5882;48.818;9.114;2022-09-06T13:42:21;3.22;;;3.03;;
11651;SDS011;5882;48.818;9.114;2022-09-06T13:44:48;2.50;;;2.30;;
11651;SDS011;5882;48.818;9.114;2022-09-06T13:47:16;2.50;;;2.30;;
11651;SDS011;5882;48.818;9.114;2022-09-06T13:49:43;2.63;;;2.42;;
11651;SDS011;5882;48.818;9.114;2022-09-06T13:52:09;2.85;;;2.47;;
11651;SDS011;5882;48.818;9.114;2022-09-06T13:54:35;3.88;;;2.20;;
11651;SDS011;5882;48.818;9.114;2022-09-06T13:57:02;2.58;;;2.38;;
11651;SDS011;5882;48.818;9.114;2022-09-06T13:59:29;2.45;;;2.20;;
11651;SDS011;5882;48.818;9.114;2022-09-06T14:01:58;4.40;;;2.10;;
11651;SDS011;5882;48.818;9.114;2022-09-06T14:04:28;2.88;;;2.63;;
11651;SDS011;5882;48.818;9.114;2022-09-06T14:06:55;2.95;;;2.30;;
11651;SDS011;5882;48.818;9.114;2022-09-06T14:09:22;2.40;;;2.08;;
11651;SDS011;5882;48.818;9.114;2022-09-06T14:11:49;2.75;;;2.45;;
11651;SDS011;5882;48.818;9.114;2022-09-06T14:14:15;2.85;;;2.53;;
11651;SDS011;5882;48.818;9.114;2022-09-06T14:16:42;2.60;;;2.40;;
11651;SDS011;5882;48.818;9.114;2022-09-06T14:19:09;2.63;;;2.42;;
11651;SDS011;5882;48.818;9.114;2022-09-06T14:21:37;2.33;;;2.22;;
11651;SDS011;5882;48.818;9.114;2022-09-06T14:24:04;2.83;;;2.55;;
11651;SDS011;5882;48.818;9.114;2022-09-06T14:26:31;3.05;;;2.22;;
11651;SDS011;5882;48.818;9.114;2022-09-06T14:28:58;5.00;;;2.75;;
11651;SDS011;5882;48.818;9.114;2022-09-06T14:31:25;2.67;;;2.47;;
11651;SDS011;5882;48.818;9.114;2022-09-06T14:33:52;3.53;;;2.42;;
11651;SDS011;5882;48.818;9.114;2022-09-06T14:36:19;3.83;;;2.42;;
11651;SDS011;5882;48.818;9.114;2022-09-06T14:38:48;2.40;;;2.20;;
11651;SDS011;5882;48.818;9.114;2022-09-06T14:41:14;2.58;;;2.38;;
11651;SDS011;5882;48.818;9.114;2022-09-06T14:43:42;4.30;;;2.42;;
11651;SDS011;5882;48.818;9.114;2022-09-06T14:46:09;3.53;;;2.50;;
11651;SDS011;5882;48.818;9.114;2022-09-06T14:48:36;2.80;;;2.58;;
11651;SDS011;5882;48.818;9.114;2022-09-06T14:51:06;3.25;;;2.95;;
11651;SDS011;5882;48.818;9.114;2022-09-06T14:53:33;2.80;;;2.50;;
11651;SDS011;5882;48.818;9.114;2022-09-06T14:56:04;3.00;;;2.70;;
11651;SDS011;5882;48.818;9.114;2022-09-06T14:58:31;2.55;;;2.35;;
11651;SDS011;5882;48.818;9.114;2022-09-06T15:01:04;3.53;;;2.35;;
11651;SDS011;5882;48.818;9.114;2022-09-06T15:03:31;2.45;;;2.25;;
11651;SDS011;5882;48.818;9.114;2022-09-06T15:05:58;2.53;;;1.92;;
11651;SDS011;5882;48.818;9.114;2022-09-06T15:08:25;2.05;;;1.85;;
11651;SDS011;5882;48.818;9.114;2022-09-06T15:10:52;4.18;;;2.33;;
11651;SDS011;5882;48.818;9.114;2022-09-06T15:13:20;1.95;;;1.75;;
11651;SDS011;5882;48.818;9.114;2022-09-06T15:15:47;2.40;;;2.20;;
11651;SDS011;5882;48.818;9.114;2022-09-06T15:18:13;2.55;;;2.20;;
11651;SDS011;5882;48.818;9.114;2022-09-06T15:20:40;2.42;;;2.22;;
11651;SDS011;5882;48.818;9.114;2022-09-06T15:23:07;3.17;;;2.40;;